Time;durP1;ratioP1;P1;durP2;ratioP2;P2;SDS_P1;SDS_P2;PMS_P1;PMS_P2;Temp;Humidity;BMP_temperature;BMP_pressure;BME280_temperature;BME280_humidity;BME280_pressure;Samples;Min_cycle;Max_cycle;Signal;HPM_P1;HPM_P2
2024/01/14 00:00:57;;;;;;;45.00;32.77;;;-1.90;99.90;;;;;;5028828;28;20441;-80
2024/01/14 00:03:24;;;;;;;46.67;31.90;;;-1.90;99.90;;;;;;5024152;28;21125;-79
2024/01/14 00:05:52;;;;;;;45.63;31.47;;;-1.90;99.90;;;;;;5033684;28;20447;-79
2024/01/14 00:08:18;;;;;;;45.93;32.10;;;-1.90;99.90;;;;;;5022513;28;20475;-80
2024/01/14 00:10:45;;;;;;;50.30;33.10;;;-1.90;99.90;;;;;;5033823;28;20444;-79
2024/01/14 00:13:12;;;;;;;51.30;33.87;;;-1.90;99.90;;;;;;5033543;28;20503;-80
2024/01/14 00:15:39;;;;;;;48.50;31.87;;;-1.90;99.90;;;;;;5030550;28;20439;-79
2024/01/14 00:18:06;;;;;;;49.17;32.83;;;-1.90;99.90;;;;;;5031513;28;20450;-80
2024/01/14 00:20:33;;;;;;;52.83;33.17;;;-2.00;99.90;;;;;;5021636;28;20440;-79
2024/01/14 00:23:01;;;;;;;49.63;32.90;;;-2.00;99.90;;;;;;5026836;28;20482;-80
2024/01/14 00:25:29;;;;;;;49.20;34.30;;;-2.00;99.90;;;;;;5029051;28;20883;-80
2024/01/14 00:27:55;;;;;;;51.27;34.80;;;-2.00;99.90;;;;;;5027318;28;20445;-80
2024/01/14 00:30:22;;;;;;;46.90;32.70;;;-2.10;99.90;;;;;;5028673;28;20504;-79
2024/01/14 00:32:49;;;;;;;49.20;33.33;;;-2.10;99.90;;;;;;5032724;28;20477;-80
2024/01/14 00:35:16;;;;;;;50.07;33.63;;;-2.10;99.90;;;;;;5028296;28;20442;-80
2024/01/14 00:37:42;;;;;;;47.17;33.07;;;-2.20;99.90;;;;;;5032755;28;20467;-79
2024/01/14 00:40:11;;;;;;;51.07;33.57;;;-2.20;99.90;;;;;;5024769;28;20440;-80
2024/01/14 00:42:38;;;;;;;48.80;32.70;;;-2.20;99.90;;;;;;5023615;28;20497;-80
2024/01/14 00:45:06;;;;;;;48.73;33.10;;;-2.20;99.90;;;;;;5031523;28;20450;-80
2024/01/14 00:47:32;;;;;;;52.53;32.93;;;-2.20;99.90;;;;;;5059235;28;20570;-80
2024/01/14 00:49:59;;;;;;;50.83;33.53;;;-2.20;99.90;;;;;;5032902;28;20477;-79
2024/01/14 00:52:26;;;;;;;48.43;34.50;;;-2.30;99.90;;;;;;5031280;28;20527;-80
2024/01/14 00:54:53;;;;;;;51.73;33.87;;;-2.30;99.90;;;;;;5043559;28;20508;-80
2024/01/14 00:57:21;;;;;;;49.97;32.17;;;-2.30;99.90;;;;;;5033117;28;20513;-80
2024/01/14 00:59:48;;;;;;;48.83;32.67;;;-2.30;99.90;;;;;;5024986;28;20870;-80
2024/01/14 01:02:15;;;;;;;44.53;32.77;;;-2.40;99.90;;;;;;5024530;28;20444;-80
2024/01/14 01:04:41;;;;;;;53.67;33.20;;;-2.40;99.90;;;;;;5024104;28;20489;-80
2024/01/14 01:07:08;;;;;;;46.83;31.87;;;-2.40;99.90;;;;;;5024419;28;20521;-80
2024/01/14 01:09:35;;;;;;;43.23;30.13;;;-2.30;99.90;;;;;;5031022;28;20439;-79
2024/01/14 01:12:01;;;;;;;47.33;33.37;;;-2.30;99.90;;;;;;5025844;28;20450;-79
2024/01/14 01:14:30;;;;;;;42.80;31.30;;;-2.30;99.90;;;;;;5036079;28;20533;-79
2024/01/14 01:16:56;;;;;;;39.80;29.73;;;-2.20;99.90;;;;;;5028730;28;20467;-79
2024/01/14 01:19:23;;;;;;;53.03;32.57;;;-2.30;99.90;;;;;;5033090;28;20467;-80
2024/01/14 01:21:51;;;;;;;47.97;32.17;;;-2.30;99.90;;;;;;5025213;28;20439;-79
2024/01/14 01:24:18;;;;;;;44.10;30.20;;;-2.30;99.90;;;;;;5032643;28;20868;-80
2024/01/14 01:26:44;;;;;;;46.63;31.87;;;-2.30;99.90;;;;;;5034331;28;20470;-80
2024/01/14 01:29:11;;;;;;;46.57;31.57;;;-2.30;99.90;;;;;;5034632;28;20475;-79
2024/01/14 01:31:39;;;;;;;45.93;31.63;;;-2.30;99.90;;;;;;5034979;28;20521;-80
2024/01/14 01:34:06;;;;;;;50.67;33.37;;;-2.30;99.90;;;;;;5031543;28;20474;-80
2024/01/14 01:36:33;;;;;;;43.17;31.67;;;-2.30;99.90;;;;;;5024250;28;20454;-80
2024/01/14 01:39:00;;;;;;;44.80;31.33;;;-2.30;99.90;;;;;;5048174;28;20451;-80
2024/01/14 01:41:26;;;;;;;44.30;30.87;;;-2.40;99.90;;;;;;5050452;28;20459;-80
2024/01/14 01:43:53;;;;;;;44.83;31.57;;;-2.40;99.90;;;;;;5030582;28;20443;-80
2024/01/14 01:46:20;;;;;;;48.90;32.47;;;-2.40;99.90;;;;;;5032237;28;21013;-77
2024/01/14 01:48:48;;;;;;;50.23;32.93;;;-2.40;99.90;;;;;;5035382;28;20443;-77
2024/01/14 01:51:16;;;;;;;46.73;31.53;;;-2.40;99.90;;;;;;5029979;28;20485;-77
2024/01/14 01:53:43;;;;;;;50.87;32.73;;;-2.50;99.90;;;;;;5033661;28;20470;-77
2024/01/14 01:56:11;;;;;;;50.43;33.57;;;-2.50;99.90;;;;;;5027676;28;20462;-79
2024/01/14 01:58:38;;;;;;;52.90;32.97;;;-2.50;99.90;;;;;;5032567;28;20434;-80
2024/01/14 02:01:06;;;;;;;52.17;32.53;;;-2.50;99.90;;;;;;5034736;28;20497;-80
2024/01/14 02:03:34;;;;;;;46.40;31.93;;;-2.50;99.90;;;;;;5035447;28;20448;-79
2024/01/14 02:06:03;;;;;;;55.70;33.67;;;-2.50;99.90;;;;;;5036007;28;20550;-80
2024/01/14 02:08:30;;;;;;;51.10;33.23;;;-2.50;99.90;;;;;;5034383;28;20508;-80
2024/01/14 02:10:57;;;;;;;50.13;33.10;;;-2.50;99.90;;;;;;5035463;28;20546;-77
2024/01/14 02:13:24;;;;;;;49.97;33.97;;;-2.50;99.90;;;;;;5033376;28;20454;-78
2024/01/14 02:15:51;;;;;;;49.80;32.10;;;-2.50;99.90;;;;;;5034820;28;20453;-79
2024/01/14 02:18:18;;;;;;;53.97;33.23;;;-2.60;99.90;;;;;;5028853;28;20438;-79
2024/01/14 02:20:44;;;;;;;45.33;32.47;;;-2.60;99.90;;;;;;5025982;28;20462;-77
2024/01/14 02:23:18;;;;;;;52.27;31.73;;;-2.60;99.90;;;;;;5034346;28;20455;-79
2024/01/14 02:25:46;;;;;;;52.83;34.63;;;-2.60;99.90;;;;;;5033544;28;20461;-77
2024/01/14 02:28:14;;;;;;;47.93;32.73;;;-2.60;99.90;;;;;;5033419;28;20446;-77
2024/01/14 02:30:43;;;;;;;49.97;33.60;;;-2.70;99.90;;;;;;5034731;28;20962;-77
2024/01/14 02:33:11;;;;;;;57.57;34.53;;;-2.70;99.90;;;;;;5033293;28;20462;-77
2024/01/14 02:35:39;;;;;;;52.20;32.33;;;-2.80;99.90;;;;;;5032947;28;20486;-77
2024/01/14 02:38:06;;;;;;;44.03;31.50;;;-2.80;99.90;;;;;;5034843;28;21008;-80
2024/01/14 02:40:34;;;;;;;51.43;32.33;;;-2.80;99.90;;;;;;5025999;28;20448;-80
2024/01/14 02:43:02;;;;;;;47.73;31.67;;;-2.90;99.90;;;;;;5028961;28;20447;-78
2024/01/14 02:45:30;;;;;;;46.13;32.17;;;-2.90;99.90;;;;;;5032912;28;21194;-77
2024/01/14 02:47:57;;;;;;;45.07;32.30;;;-2.90;99.90;;;;;;5027104;28;20470;-77
2024/01/14 02:50:24;;;;;;;50.40;32.83;;;-2.90;99.90;;;;;;5032742;28;20438;-77
2024/01/14 02:52:51;;;;;;;43.67;31.27;;;-3.00;99.90;;;;;;5033141;28;20493;-77
2024/01/14 02:55:18;;;;;;;46.57;32.67;;;-3.00;99.90;;;;;;5040951;28;21015;-77
2024/01/14 02:57:45;;;;;;;37.47;29.00;;;-3.00;99.90;;;;;;5026024;28;20477;-77
2024/01/14 03:00:15;;;;;;;42.10;30.60;;;-3.00;99.90;;;;;;5023526;28;20466;-77
2024/01/14 03:02:42;;;;;;;41.10;29.97;;;-3.10;99.90;;;;;;5031111;28;20599;-77
2024/01/14 03:05:09;;;;;;;48.73;30.90;;;-3.10;99.90;;;;;;5018808;28;20523;-77
2024/01/14 03:07:36;;;;;;;48.20;30.83;;;-3.20;99.90;;;;;;5024643;28;20466;-77
2024/01/14 03:10:04;;;;;;;45.23;31.63;;;-3.20;99.90;;;;;;5024853;28;20455;-77
2024/01/14 03:12:30;;;;;;;49.53;33.50;;;-3.30;99.90;;;;;;5033890;28;20442;-77
2024/01/14 03:14:57;;;;;;;46.97;32.53;;;-3.30;99.90;;;;;;5033319;28;20532;-77
2024/01/14 03:17:25;;;;;;;44.93;31.57;;;-3.30;99.90;;;;;;5041180;28;20523;-77
2024/01/14 03:19:52;;;;;;;42.50;30.10;;;-3.30;99.90;;;;;;5032754;28;20825;-77
2024/01/14 03:22:18;;;;;;;47.20;31.43;;;-3.30;99.90;;;;;;5031165;28;20463;-77
2024/01/14 03:24:45;;;;;;;45.63;31.20;;;-3.30;99.90;;;;;;5028689;28;20490;-77
2024/01/14 03:27:12;;;;;;;48.07;31.90;;;-3.30;99.90;;;;;;5030294;28;20266;-77
2024/01/14 03:29:38;;;;;;;56.03;33.27;;;-3.30;99.90;;;;;;5033839;28;20447;-77
2024/01/14 03:32:05;;;;;;;45.73;29.40;;;-3.30;99.90;;;;;;5035988;28;20455;-78
2024/01/14 03:34:33;;;;;;;51.60;32.13;;;-3.40;99.90;;;;;;5024175;28;20546;-77
2024/01/14 03:37:00;;;;;;;46.40;32.03;;;-3.40;99.90;;;;;;5021193;28;20478;-77
2024/01/14 03:39:27;;;;;;;51.83;33.57;;;-3.40;99.90;;;;;;5030248;28;20473;-77
2024/01/14 03:41:54;;;;;;;48.03;31.37;;;-3.40;99.90;;;;;;5033241;28;20439;-77
2024/01/14 03:44:20;;;;;;;53.83;33.27;;;-3.40;99.90;;;;;;5023991;28;21212;-77
2024/01/14 03:46:47;;;;;;;51.60;32.57;;;-3.50;99.90;;;;;;5032447;28;20473;-77
2024/01/14 03:49:14;;;;;;;45.13;31.63;;;-3.50;99.90;;;;;;5033859;28;20453;-77
2024/01/14 03:51:42;;;;;;;46.70;31.17;;;-3.40;99.90;;;;;;5030616;28;20454;-80
2024/01/14 03:54:09;;;;;;;52.17;30.83;;;-3.40;99.90;;;;;;5032383;28;20529;-80
2024/01/14 03:56:35;;;;;;;47.10;30.27;;;-3.40;99.90;;;;;;5030285;28;20538;-79
2024/01/14 03:59:02;;;;;;;42.90;30.87;;;-3.40;99.90;;;;;;5026623;28;20496;-77
2024/01/14 04:01:29;;;;;;;46.53;30.43;;;-3.40;99.90;;;;;;5032313;28;21023;-77
2024/01/14 04:03:56;;;;;;;46.37;30.47;;;-3.30;99.90;;;;;;5037424;28;20807;-77
2024/01/14 04:06:23;;;;;;;47.40;30.63;;;-3.40;99.90;;;;;;5022547;28;20474;-80
2024/01/14 04:08:51;;;;;;;42.10;29.17;;;-3.40;99.90;;;;;;5033253;28;20443;-79
2024/01/14 04:11:18;;;;;;;41.80;30.90;;;-3.30;99.90;;;;;;5033929;28;20450;-80
2024/01/14 04:13:45;;;;;;;43.10;29.03;;;-3.30;99.90;;;;;;5031888;28;20455;-79
2024/01/14 04:16:12;;;;;;;42.80;29.97;;;-3.30;99.90;;;;;;5041445;28;20479;-79
2024/01/14 04:18:38;;;;;;;46.33;32.13;;;-3.40;99.90;;;;;;5027364;28;20478;-80
2024/01/14 04:21:05;;;;;;;37.57;29.00;;;-3.40;99.90;;;;;;5026876;28;20447;-77
2024/01/14 04:23:32;;;;;;;47.70;31.83;;;-3.50;99.90;;;;;;5024776;28;20451;-77
2024/01/14 04:26:05;;;;;;;44.40;31.70;;;-3.50;99.90;;;;;;5020814;28;20467;-77
2024/01/14 04:28:32;;;;;;;44.67;30.57;;;-3.60;99.90;;;;;;5030967;28;20441;-77
2024/01/14 04:30:59;;;;;;;48.23;30.67;;;-3.70;99.90;;;;;;5039961;28;20439;-77
2024/01/14 04:33:26;;;;;;;44.90;30.60;;;-3.70;99.90;;;;;;5031163;28;20446;-79
2024/01/14 04:36:02;;;;;;;41.43;29.13;;;-3.80;99.90;;;;;;5030307;28;20567;-83
2024/01/14 04:38:35;;;;;;;48.47;32.30;;;-3.80;99.90;;;;;;5036601;28;20445;-82
2024/01/14 04:41:03;;;;;;;49.03;33.53;;;-3.80;99.90;;;;;;5033234;28;20442;-81
2024/01/14 04:43:30;;;;;;;44.23;30.20;;;-3.80;99.90;;;;;;5046964;28;20447;-80
2024/01/14 04:45:57;;;;;;;41.20;29.37;;;-3.90;99.90;;;;;;5030073;28;20504;-80
2024/01/14 04:48:24;;;;;;;42.93;29.77;;;-3.90;99.90;;;;;;5031329;28;20446;-78
2024/01/14 04:50:51;;;;;;;41.60;27.97;;;-3.80;99.90;;;;;;5031536;28;20443;-78
2024/01/14 04:53:18;;;;;;;45.63;29.37;;;-3.90;99.90;;;;;;5023758;28;20451;-79
2024/01/14 04:55:45;;;;;;;43.67;29.10;;;-3.80;99.90;;;;;;5028909;28;20856;-78
2024/01/14 04:58:13;;;;;;;41.70;29.67;;;-3.70;99.90;;;;;;5026979;28;20481;-78
2024/01/14 05:00:40;;;;;;;42.37;30.10;;;-3.70;99.90;;;;;;5031541;28;20820;-78
2024/01/14 05:03:07;;;;;;;37.17;28.33;;;-3.70;99.90;;;;;;5026953;28;20471;-78
2024/01/14 05:05:34;;;;;;;49.03;30.03;;;-3.70;99.90;;;;;;5024906;28;20938;-77
2024/01/14 05:08:01;;;;;;;49.17;30.33;;;-3.70;99.90;;;;;;5032524;28;20450;-77
2024/01/14 05:10:28;;;;;;;44.47;31.07;;;-3.70;99.90;;;;;;5030020;28;20533;-78
2024/01/14 05:12:55;;;;;;;48.10;31.40;;;-3.70;99.90;;;;;;5043812;28;20505;-77
2024/01/14 05:15:23;;;;;;;54.67;32.07;;;-3.70;99.90;;;;;;5019448;28;20478;-77
2024/01/14 05:17:50;;;;;;;42.40;29.87;;;-3.70;99.90;;;;;;5030846;28;20458;-77
2024/01/14 05:20:16;;;;;;;46.40;30.77;;;-3.60;99.90;;;;;;5023950;28;20555;-80
2024/01/14 05:22:43;;;;;;;47.03;32.27;;;-3.60;99.90;;;;;;5030173;28;20443;-80
2024/01/14 05:25:10;;;;;;;45.70;32.27;;;-3.60;99.90;;;;;;5031333;28;20458;-80
2024/01/14 05:27:37;;;;;;;40.50;30.00;;;-3.60;99.90;;;;;;5028278;28;20498;-78
2024/01/14 05:30:05;;;;;;;47.70;31.10;;;-3.60;99.90;;;;;;5047628;28;20454;-78
2024/01/14 05:32:33;;;;;;;45.47;31.13;;;-3.60;99.90;;;;;;5032567;28;20450;-77
2024/01/14 05:35:00;;;;;;;45.03;30.40;;;-3.60;99.90;;;;;;5041464;28;20508;-81
2024/01/14 05:37:26;;;;;;;42.93;30.00;;;-3.60;99.90;;;;;;5031651;28;20470;-81
2024/01/14 05:39:53;;;;;;;43.00;30.53;;;-3.60;99.90;;;;;;5030434;28;20443;-81
2024/01/14 05:42:20;;;;;;;49.33;32.37;;;-3.60;99.90;;;;;;5026075;28;20497;-79
2024/01/14 05:44:47;;;;;;;48.83;31.13;;;-3.50;99.90;;;;;;5029492;28;20549;-81
2024/01/14 05:47:16;;;;;;;42.07;29.63;;;-3.50;99.90;;;;;;5027836;28;20454;-82
2024/01/14 05:49:45;;;;;;;42.00;29.93;;;-3.50;99.90;;;;;;5022741;28;20447;-82
2024/01/14 05:52:15;;;;;;;41.70;29.00;;;-3.50;99.90;;;;;;5030434;28;20451;-79
2024/01/14 05:54:45;;;;;;;43.57;30.60;;;-3.50;99.90;;;;;;5023400;28;20459;-81
2024/01/14 05:57:12;;;;;;;50.00;31.30;;;-3.40;99.90;;;;;;5037096;28;20490;-82
2024/01/14 05:59:40;;;;;;;45.00;29.67;;;-3.40;99.90;;;;;;5047734;28;20812;-82
2024/01/14 06:02:07;;;;;;;44.30;32.03;;;-3.40;99.90;;;;;;5031938;28;20825;-81
2024/01/14 06:04:34;;;;;;;46.23;29.90;;;-3.30;99.90;;;;;;5023934;28;20482;-81
2024/01/14 06:07:02;;;;;;;43.00;29.63;;;-3.40;99.90;;;;;;5032849;28;20470;-80
2024/01/14 06:09:29;;;;;;;47.30;32.77;;;-3.30;99.90;;;;;;5034560;28;20438;-82
2024/01/14 06:11:55;;;;;;;47.23;31.20;;;-3.30;99.90;;;;;;5034264;28;20454;-81
2024/01/14 06:14:22;;;;;;;46.63;30.23;;;-3.30;99.90;;;;;;5034185;28;20455;-82
2024/01/14 06:16:49;;;;;;;40.80;28.33;;;-3.30;99.90;;;;;;5029811;28;21109;-81
2024/01/14 06:19:16;;;;;;;48.23;31.53;;;-3.30;99.90;;;;;;5031991;28;20454;-81
2024/01/14 06:21:44;;;;;;;49.00;31.47;;;-3.30;99.90;;;;;;5038421;28;20443;-81
2024/01/14 06:24:14;;;;;;;54.33;32.40;;;-3.20;99.90;;;;;;5037557;28;20500;-80
2024/01/14 06:26:41;;;;;;;47.83;31.37;;;-3.20;99.90;;;;;;5064546;28;20466;-81
2024/01/14 06:29:07;;;;;;;45.73;29.87;;;-3.20;99.90;;;;;;5038387;28;20443;-81
2024/01/14 06:31:34;;;;;;;49.43;31.53;;;-3.10;99.90;;;;;;5032887;28;20501;-78
2024/01/14 06:34:01;;;;;;;42.23;31.07;;;-3.10;99.90;;;;;;5033013;28;20450;-79
2024/01/14 06:36:28;;;;;;;44.20;31.23;;;-3.10;99.90;;;;;;5032859;28;20485;-78
2024/01/14 06:38:54;;;;;;;46.30;31.90;;;-3.10;99.90;;;;;;5028671;28;20577;-79
2024/01/14 06:41:24;;;;;;;46.03;30.50;;;-3.10;99.90;;;;;;5029583;28;20461;-79
2024/01/14 06:43:51;;;;;;;42.47;29.60;;;-3.00;99.90;;;;;;5024347;28;20446;-77
2024/01/14 06:46:18;;;;;;;44.63;29.33;;;-2.90;99.90;;;;;;5030717;28;20456;-78
2024/01/14 06:48:45;;;;;;;42.10;29.90;;;-2.90;99.90;;;;;;5033754;28;20446;-77
2024/01/14 06:51:12;;;;;;;47.07;31.87;;;-2.90;99.90;;;;;;5041136;28;20504;-78
2024/01/14 06:53:39;;;;;;;43.73;29.33;;;-2.90;99.90;;;;;;5028835;28;20458;-81
2024/01/14 06:56:06;;;;;;;44.10;29.67;;;-2.80;99.90;;;;;;5029696;28;20477;-80
2024/01/14 06:58:35;;;;;;;43.77;30.10;;;-2.80;99.90;;;;;;5033150;28;20457;-78
2024/01/14 07:01:03;;;;;;;44.20;29.87;;;-2.80;99.90;;;;;;5042337;28;20431;-78
2024/01/14 07:03:30;;;;;;;46.07;30.80;;;-2.80;99.90;;;;;;5035156;28;20439;-78
2024/01/14 07:05:57;;;;;;;46.53;30.17;;;-2.80;99.90;;;;;;5038119;28;20454;-78
2024/01/14 07:08:25;;;;;;;45.67;29.77;;;-2.80;99.90;;;;;;5035628;28;20443;-78
2024/01/14 07:10:52;;;;;;;49.40;32.17;;;-2.80;99.90;;;;;;5027300;28;20442;-77
2024/01/14 07:13:19;;;;;;;44.57;29.10;;;-2.90;99.90;;;;;;5029538;28;20447;-78
2024/01/14 07:15:47;;;;;;;42.83;28.70;;;-2.90;99.90;;;;;;5022519;28;20470;-78
2024/01/14 07:18:14;;;;;;;45.73;31.10;;;-2.80;99.90;;;;;;5028457;28;20824;-78
2024/01/14 07:20:41;;;;;;;44.10;29.50;;;-2.80;99.90;;;;;;5029805;28;20496;-78
2024/01/14 07:23:08;;;;;;;45.13;30.67;;;-2.80;99.90;;;;;;5020492;28;20546;-79
2024/01/14 07:25:35;;;;;;;53.07;32.30;;;-2.80;99.90;;;;;;5018624;28;20467;-77
2024/01/14 07:28:02;;;;;;;45.60;30.03;;;-2.80;99.90;;;;;;5023782;28;20504;-78
2024/01/14 07:30:29;;;;;;;43.50;31.17;;;-2.80;99.90;;;;;;5026987;28;20435;-77
2024/01/14 07:32:57;;;;;;;41.17;29.80;;;-2.80;99.90;;;;;;5029375;28;20478;-78
2024/01/14 07:35:25;;;;;;;40.57;29.80;;;-2.80;99.90;;;;;;5035423;28;20523;-77
2024/01/14 07:37:58;;;;;;;46.40;31.60;;;-2.80;99.90;;;;;;5034824;28;20449;-79
2024/01/14 07:40:25;;;;;;;45.00;29.93;;;-2.70;99.90;;;;;;5035637;28;20434;-78
2024/01/14 07:42:53;;;;;;;45.63;31.47;;;-2.70;99.90;;;;;;5028094;28;20478;-81
2024/01/14 07:45:20;;;;;;;45.47;31.53;;;-2.60;99.90;;;;;;5035608;28;20447;-81
2024/01/14 07:47:47;;;;;;;49.07;31.67;;;-2.70;99.90;;;;;;5032401;28;20479;-81
2024/01/14 07:50:15;;;;;;;52.30;31.33;;;-2.80;99.90;;;;;;5034263;28;20442;-81
2024/01/14 07:52:42;;;;;;;39.57;30.13;;;-2.70;99.90;;;;;;5034876;28;20447;-82
2024/01/14 07:55:09;;;;;;;47.33;30.23;;;-2.60;99.90;;;;;;5031011;28;20450;-81
2024/01/14 07:57:36;;;;;;;49.22;35.97;;;-2.60;99.90;;;;;;5049374;28;20446;-82
2024/01/14 08:00:03;;;;;;;49.20;33.00;;;-2.50;99.90;;;;;;5028632;28;20289;-78
2024/01/14 08:02:38;;;;;;;44.40;30.33;;;-2.50;99.90;;;;;;5026810;28;20944;-78
2024/01/14 08:05:05;;;;;;;44.57;29.70;;;-2.40;99.90;;;;;;5022475;28;20460;-78
2024/01/14 08:07:33;;;;;;;47.00;30.70;;;-2.40;99.90;;;;;;5028164;28;20470;-78
2024/01/14 08:10:00;;;;;;;46.00;29.33;;;-2.40;99.90;;;;;;5020742;28;20447;-78
2024/01/14 08:12:27;;;;;;;45.10;30.40;;;-2.40;99.90;;;;;;5022480;28;20450;-79
2024/01/14 08:14:54;;;;;;;45.43;30.27;;;-2.40;99.90;;;;;;5027243;28;20538;-78
2024/01/14 08:17:21;;;;;;;47.53;31.43;;;-2.40;99.90;;;;;;5030382;28;20493;-78
2024/01/14 08:19:48;;;;;;;42.23;28.93;;;-2.40;99.90;;;;;;5043294;28;20444;-79
2024/01/14 08:22:17;;;;;;;43.60;28.63;;;-2.30;99.90;;;;;;5031362;28;20435;-78
2024/01/14 08:24:45;;;;;;;44.23;30.37;;;-2.40;99.90;;;;;;5031195;28;20977;-78
2024/01/14 08:27:12;;;;;;;44.63;29.50;;;-2.30;99.90;;;;;;5028980;28;20894;-78
2024/01/14 08:29:40;;;;;;;44.33;29.70;;;-2.30;99.90;;;;;;5023631;28;20505;-78
2024/01/14 08:32:07;;;;;;;41.60;29.93;;;-2.20;99.90;;;;;;5031115;28;20504;-77
2024/01/14 08:34:34;;;;;;;42.13;29.77;;;-2.10;99.90;;;;;;5028366;28;20888;-78
2024/01/14 08:37:01;;;;;;;41.83;29.03;;;-2.00;99.90;;;;;;5034377;28;20477;-78
2024/01/14 08:39:27;;;;;;;41.20;29.00;;;-2.00;99.90;;;;;;5025903;28;20499;-79
2024/01/14 08:41:56;;;;;;;41.43;28.13;;;-1.90;99.90;;;;;;5028707;28;20505;-79
2024/01/14 08:44:23;;;;;;;49.37;30.37;;;-1.90;99.90;;;;;;5030455;28;20900;-79
2024/01/14 08:46:50;;;;;;;49.37;29.03;;;-1.90;99.90;;;;;;5024216;28;20451;-81
2024/01/14 08:49:17;;;;;;;48.67;31.73;;;-1.90;99.90;;;;;;5030203;28;20988;-78
2024/01/14 08:51:43;;;;;;;45.10;29.17;;;-1.90;99.90;;;;;;5038263;28;20783;-79
2024/01/14 08:54:10;;;;;;;43.60;29.40;;;-1.90;99.90;;;;;;5027687;28;20505;-78
2024/01/14 08:56:37;;;;;;;42.07;29.33;;;-1.80;99.90;;;;;;5043536;28;20479;-79
2024/01/14 08:59:05;;;;;;;39.97;27.47;;;-1.80;99.90;;;;;;5029957;28;20470;-81
2024/01/14 09:01:32;;;;;;;43.80;29.07;;;-1.80;99.90;;;;;;5027813;28;20451;-78
2024/01/14 09:03:59;;;;;;;44.97;30.17;;;-1.80;99.90;;;;;;5028121;28;20874;-78
2024/01/14 09:06:25;;;;;;;41.50;29.00;;;-1.80;99.90;;;;;;5025092;28;20457;-79
2024/01/14 09:08:52;;;;;;;40.87;29.87;;;-1.90;99.90;;;;;;5024529;28;20507;-76
2024/01/14 09:11:21;;;;;;;45.47;29.00;;;-1.80;99.90;;;;;;5022683;28;20455;-77
2024/01/14 09:13:48;;;;;;;51.00;31.67;;;-1.70;99.90;;;;;;5030285;28;20534;-78
2024/01/14 09:16:17;;;;;;;43.47;28.47;;;-1.60;99.90;;;;;;5025669;28;20525;-76
2024/01/14 09:18:44;;;;;;;45.37;29.73;;;-1.40;99.90;;;;;;5030172;28;21017;-78
2024/01/14 09:21:10;;;;;;;40.40;28.30;;;-1.30;99.90;;;;;;5033091;28;20959;-77
2024/01/14 09:23:37;;;;;;;39.90;27.73;;;-1.30;99.90;;;;;;5024935;28;20872;-77
2024/01/14 09:26:04;;;;;;;39.60;28.13;;;-1.20;99.90;;;;;;5027979;28;21008;-77
2024/01/14 09:28:31;;;;;;;39.93;28.30;;;-1.30;99.90;;;;;;5023773;28;20441;-78
2024/01/14 09:30:58;;;;;;;35.80;28.03;;;-1.20;99.90;;;;;;5024770;28;20521;-78
2024/01/14 09:33:26;;;;;;;37.60;27.20;;;-1.30;99.90;;;;;;5035093;28;20455;-78
2024/01/14 09:35:54;;;;;;;33.57;25.43;;;-1.30;99.90;;;;;;5033422;28;20456;-77
2024/01/14 09:38:21;;;;;;;35.93;27.10;;;-1.30;99.90;;;;;;5030657;28;20443;-78
2024/01/14 09:40:57;;;;;;;38.10;27.60;;;-1.20;99.90;;;;;;5033156;28;20459;-78
2024/01/14 09:43:26;;;;;;;36.83;26.30;;;-1.20;99.90;;;;;;5030412;28;20440;-78
2024/01/14 09:45:53;;;;;;;36.50;26.57;;;-1.10;99.90;;;;;;5026086;28;20942;-77
2024/01/14 09:48:20;;;;;;;37.30;26.00;;;-1.10;99.90;;;;;;5035031;28;20435;-78
2024/01/14 09:50:50;;;;;;;33.37;26.00;;;-1.10;99.90;;;;;;5030658;28;20439;-78
2024/01/14 09:53:17;;;;;;;39.07;27.37;;;-1.10;99.90;;;;;;5045648;28;20449;-78
2024/01/14 09:55:47;;;;;;;33.63;25.37;;;-1.10;99.90;;;;;;5027027;28;20437;-78
2024/01/14 09:58:14;;;;;;;30.93;25.87;;;-1.00;99.90;;;;;;5022974;28;20547;-78
2024/01/14 10:00:42;;;;;;;36.00;25.50;;;-1.00;99.90;;;;;;5033632;28;20440;-78
2024/01/14 10:03:09;;;;;;;35.90;25.90;;;-1.00;99.90;;;;;;5033214;28;20436;-78
2024/01/14 10:05:37;;;;;;;36.47;25.93;;;-1.00;99.90;;;;;;5027447;28;20437;-78
2024/01/14 10:08:06;;;;;;;41.47;27.03;;;-1.00;99.90;;;;;;5033533;28;20450;-78
2024/01/14 10:10:33;;;;;;;37.43;26.00;;;-1.00;99.90;;;;;;5034066;28;20487;-78
2024/01/14 10:13:03;;;;;;;31.73;26.20;;;-1.00;99.90;;;;;;5034403;28;20441;-78
2024/01/14 10:15:32;;;;;;;36.77;27.30;;;-0.90;99.90;;;;;;5025109;28;20459;-78
2024/01/14 10:17:59;;;;;;;35.87;26.53;;;-0.90;99.90;;;;;;5042697;28;20536;-78
2024/01/14 10:20:25;;;;;;;35.65;28.67;;;-0.90;99.90;;;;;;5032692;28;20472;-78
2024/01/14 10:22:52;;;;;;;36.63;27.23;;;-0.80;99.90;;;;;;5024402;28;20268;-78
2024/01/14 10:25:20;;;;;;;33.53;25.57;;;-0.80;99.90;;;;;;5029929;28;22242;-77
2024/01/14 10:27:49;;;;;;;37.00;27.97;;;-0.80;99.90;;;;;;5034697;28;20502;-78
2024/01/14 10:30:15;;;;;;;34.90;27.47;;;-0.70;99.90;;;;;;5034326;28;20444;-77
2024/01/14 10:32:42;;;;;;;32.30;25.87;;;-0.80;99.90;;;;;;5034019;28;20454;-77
2024/01/14 10:35:12;;;;;;;35.50;28.20;;;-0.80;99.90;;;;;;5032727;28;20481;-78
2024/01/14 10:37:40;;;;;;;36.30;26.93;;;-0.90;99.90;;;;;;5038118;28;20482;-78
2024/01/14 10:40:10;;;;;;;35.33;25.93;;;-0.80;99.90;;;;;;5026501;28;20547;-80
2024/01/14 10:42:38;;;;;;;31.67;25.77;;;-0.70;99.90;;;;;;5031194;28;20466;-80
2024/01/14 10:45:06;;;;;;;39.27;28.03;;;-0.60;99.90;;;;;;5035924;28;20450;-80
2024/01/14 10:47:34;;;;;;;35.53;25.80;;;-0.60;99.90;;;;;;5030040;28;20491;-80
2024/01/14 10:50:02;;;;;;;35.20;26.80;;;-0.50;99.90;;;;;;5030733;28;20442;-80
2024/01/14 10:52:32;;;;;;;37.10;27.77;;;-0.50;99.90;;;;;;5030669;28;20524;-80
2024/01/14 10:55:01;;;;;;;37.93;27.13;;;-0.50;99.90;;;;;;5024353;28;20970;-81
2024/01/14 10:57:34;;;;;;;30.43;24.87;;;-0.50;99.90;;;;;;5026265;28;20477;-79
2024/01/14 11:00:05;;;;;;;32.47;24.70;;;-0.50;99.90;;;;;;5033722;28;20454;-80
2024/01/14 11:02:34;;;;;;;37.13;26.03;;;-0.60;99.90;;;;;;5034844;28;20436;-79
2024/01/14 11:05:02;;;;;;;33.70;25.90;;;-0.70;99.90;;;;;;5033293;28;20488;-81
2024/01/14 11:07:30;;;;;;;34.60;26.20;;;-0.70;99.90;;;;;;5021261;28;20511;-80
2024/01/14 11:09:58;;;;;;;32.57;25.77;;;-0.70;99.90;;;;;;5031461;28;20447;-80
2024/01/14 11:12:30;;;;;;;36.03;26.37;;;-0.70;99.90;;;;;;5033575;28;20470;-80
2024/01/14 11:15:05;;;;;;;31.73;25.30;;;-0.70;99.90;;;;;;5032280;28;20456;-80
2024/01/14 11:17:46;;;;;;;30.03;23.93;;;-0.70;99.90;;;;;;5026236;28;20475;-80
2024/01/14 11:20:17;;;;;;;34.53;25.27;;;-0.60;99.90;;;;;;5023453;28;20453;-80
2024/01/14 11:22:44;;;;;;;34.60;25.53;;;-0.60;99.90;;;;;;5032456;28;20453;-78
2024/01/14 11:25:16;;;;;;;31.30;24.87;;;-0.50;99.90;;;;;;5030795;28;20535;-77
2024/01/14 11:27:42;;;;;;;33.23;25.13;;;-0.40;99.90;;;;;;5030204;28;20473;-78
2024/01/14 11:30:17;;;;;;;30.93;24.23;;;-0.40;99.90;;;;;;5032370;28;20448;-78
2024/01/14 11:32:44;;;;;;;33.90;26.03;;;-0.40;99.90;;;;;;5059838;28;20454;-79
2024/01/14 11:35:11;;;;;;;34.10;26.07;;;-0.40;99.90;;;;;;5030092;28;20504;-78
2024/01/14 11:37:44;;;;;;;35.60;26.83;;;-0.30;99.90;;;;;;5031337;28;20480;-79
2024/01/14 11:40:16;;;;;;;37.53;26.60;;;-0.30;99.90;;;;;;5027203;28;20447;-78
2024/01/14 11:42:50;;;;;;;34.27;26.93;;;-0.30;99.90;;;;;;5032890;28;20883;-78
2024/01/14 11:45:38;;;;;;;36.20;26.57;;;-0.30;99.90;;;;;;5027334;28;20475;-78
2024/01/14 11:48:06;;;;;;;39.03;28.07;;;-0.30;99.90;;;;;;5028975;28;20444;-78
2024/01/14 11:50:34;;;;;;;36.93;26.50;;;-0.30;99.90;;;;;;5024286;28;20483;-78
2024/01/14 11:53:03;;;;;;;34.73;26.33;;;-0.30;99.90;;;;;;5028261;28;20553;-78
2024/01/14 11:55:31;;;;;;;31.87;24.90;;;-0.30;99.90;;;;;;5030693;28;20522;-79
2024/01/14 11:58:17;;;;;;;36.77;26.77;;;-0.20;99.90;;;;;;5035611;28;21057;-80
2024/01/14 12:00:48;;;;;;;30.90;25.23;;;-0.20;99.90;;;;;;5041942;28;20448;-78
2024/01/14 12:03:15;;;;;;;34.43;26.77;;;-0.10;99.90;;;;;;5026057;28;20469;-79
2024/01/14 12:05:43;;;;;;;30.90;25.63;;;-0.10;99.90;;;;;;5032481;28;20439;-78
2024/01/14 12:08:11;;;;;;;36.10;27.00;;;-0.10;99.90;;;;;;5030937;28;20954;-78
2024/01/14 12:10:38;;;;;;;32.20;24.57;;;-0.10;99.90;;;;;;5020424;28;20456;-78
2024/01/14 12:13:07;;;;;;;32.10;25.50;;;0.00;99.90;;;;;;5020952;28;20484;-78
2024/01/14 12:15:34;;;;;;;37.57;26.47;;;-0.10;99.90;;;;;;5031004;28;20457;-78
2024/01/14 12:18:03;;;;;;;32.43;25.33;;;-0.10;99.90;;;;;;5027213;28;20483;-79
2024/01/14 12:20:30;;;;;;;40.27;26.67;;;0.00;99.90;;;;;;5031961;28;20440;-79
2024/01/14 12:23:02;;;;;;;32.93;26.00;;;-0.10;99.90;;;;;;5030704;28;20441;-82
2024/01/14 12:25:29;;;;;;;29.47;24.93;;;-0.10;99.90;;;;;;5033721;28;20459;-82
2024/01/14 12:27:56;;;;;;;36.63;26.90;;;0.00;99.90;;;;;;5035469;28;20442;-81
2024/01/14 12:30:28;;;;;;;33.03;24.87;;;0.00;99.90;;;;;;5035836;28;20500;-80